Flight Track Log - Related Links

Times and Time Zones

All times are in EDT time to prevent confusion due to time zone crossing. See the AAL2358 flight status page for this flight to view local times or setup timezone preferences in your user account.

Time Position Orientation Groundspeed Altitude Reporting Facility
EDT Latitude Longitude Course Direction KTS MPH feet Rate Location/Type
Tue 11:48:33 PM 32.9167 -97.0500 293° West 150 173 1,400  Level Dallas / Fort Worth TRACON
Tue 11:48:57 PM 32.9333 -97.0500 360° North 157 181 2,100 2,143 Climbing Dallas / Fort Worth TRACON
Tue 11:49:57 PM 32.9833 -97.0500 360° North 222 255 4,400 2,550 Climbing Dallas / Fort Worth TRACON
Tue 11:50:57 PM 33.0000 -97.1333 283° West 277 319 7,200 1,893 Climbing Dallas / Fort Worth TRACON
Tue 11:51:00 PM 32.7738 -97.2495 298° West  Level FlightAware Approximate
Tue 11:52:00 PM 32.8185 -97.3500 298° West  Level FlightAware Approximate
Tue 11:53:00 PM 32.8587 -97.4530 293° West  Level FlightAware Approximate
Tue 11:53:04 PM 32.9964 -97.3283 269° West 291 335 10,300  Level Fort Worth Center
Tue 11:54:05 PM 32.9914 -97.4358 267° West 320 368 13,200 2,951 Climbing Fort Worth Center
Tue 11:55:06 PM 32.9872 -97.5417 267° West 322 371 16,300 2,826 Climbing Fort Worth Center
Tue 11:56:06 PM 32.9825 -97.6578 267° West 326 375 18,900 2,479 Climbing Fort Worth Center
Tue 11:57:07 PM 32.9856 -97.7692 272° West 338 389 21,300 2,262 Climbing Fort Worth Center
Tue 11:58:08 PM 33.0017 -97.8675 281° West 329 379 23,500 1,967 Climbing Fort Worth Center
Tue 11:59:09 PM 33.0189 -97.9739 281° West 329 379 25,300 1,869 Climbing Fort Worth Center
Wed 12:00:10 AM 33.0411 -98.0794 284° West 330 380 27,300 1,587 Climbing Fort Worth Center
Wed 12:01:10 AM 33.0806 -98.1839 294° West 350 403 28,500 1,289 Climbing Fort Worth Center
Wed 12:02:11 AM 33.1042 -98.2911 285° West 340 391 29,900 738 Climbing Fort Worth Center
Wed 12:03:12 AM 33.1336 -98.3992 288° West 340 391 30,000 49 Climbing Fort Worth Center
Wed 12:04:13 AM 33.1639 -98.5169 287° West 341 392 30,000  Level Fort Worth Center
Wed 12:05:14 AM 33.1947 -98.6264 289° West 343 395 30,000  Level Fort Worth Center
Wed 12:06:14 AM 33.2236 -98.7353 288° West 343 395 30,000  Level Fort Worth Center
Wed 12:07:15 AM 33.2522 -98.8431 288° West 343 395 30,000  Level Fort Worth Center
Wed 12:08:16 AM 33.2806 -98.9500 288° West 343 395 30,000  Level Fort Worth Center
Wed 12:09:17 AM 33.3103 -99.0592 288° West 343 395 30,000  Level Fort Worth Center
Wed 12:10:17 AM 33.3386 -99.1667 288° West 343 395 30,000  Level Fort Worth Center
Wed 12:11:18 AM 33.3694 -99.2878 287° West 343 395 30,000  Level Fort Worth Center
Wed 12:12:19 AM 33.3989 -99.3958 288° West 342 394 30,000  Level Fort Worth Center
Wed 12:13:19 AM 33.4244 -99.4917 288° West 342 394 30,000  Level Fort Worth Center
Wed 12:14:20 AM 33.4578 -99.6206 287° West 342 394 30,000  Level Fort Worth Center
Wed 12:15:21 AM 33.4872 -99.7303 288° West 343 395 30,000  Level Fort Worth Center
Wed 12:16:22 AM 33.5153 -99.8403 287° West 345 397 30,000  Level Fort Worth Center
Wed 12:17:22 AM 33.5431 -99.9478 287° West 343 395 30,000  Level Fort Worth Center
Wed 12:18:23 AM 33.5708 -100.0558 287° West 342 394 30,000  Level Fort Worth Center
Wed 12:19:24 AM 33.5992 -100.1669 287° West 344 396 30,000  Level Fort Worth Center
Wed 12:20:24 AM 33.6275 -100.2753 287° West 344 396 30,000  Level Fort Worth Center
Wed 12:21:25 AM 33.6556 -100.3839 287° West 344 396 30,000  Level Fort Worth Center
Wed 12:22:26 AM 33.6814 -100.4967 285° West 344 396 30,000  Level Fort Worth Center
Wed 12:23:26 AM 33.7097 -100.6031 288° West 341 392 30,000  Level Fort Worth Center
Wed 12:24:27 AM 33.7361 -100.7156 286° West 342 394 30,000  Level Fort Worth Center
Wed 12:25:28 AM 33.7631 -100.8247 287° West 342 394 30,000  Level Fort Worth Center
Wed 12:26:28 AM 33.7922 -100.9425 287° West 342 394 30,000  Level Fort Worth Center
Wed 12:27:29 AM 33.8164 -101.0422 286° West 342 394 30,000  Level Fort Worth Center
Wed 12:28:30 AM 33.8494 -101.1717 287° West 341 392 30,000  Level Fort Worth Center
Wed 12:29:30 AM 33.8753 -101.2831 286° West 341 392 30,000  Level Fort Worth Center
Wed 12:30:31 AM 33.9025 -101.3914 287° West 341 392 30,000  Level Fort Worth Center
Wed 12:31:31 AM 33.9289 -101.4994 286° West 340 391 30,000  Level Fort Worth Center
Wed 12:32:32 AM 33.9553 -101.6094 286° West 340 391 30,000  Level Fort Worth Center
Wed 12:33:32 AM 33.9806 -101.7131 286° West 339 390 30,000  Level Fort Worth Center
Wed 12:34:33 AM 34.0069 -101.8281 286° West 337 388 30,000  Level Fort Worth Center
Wed 12:35:34 AM 34.0325 -101.9367 286° West 338 389 30,000  Level Fort Worth Center
Wed 12:36:35 AM 34.0603 -102.0472 287° West 340 391 30,000  Level Fort Worth Center
Wed 12:37:35 AM 34.0858 -102.1569 286° West 341 392 30,000  Level Fort Worth Center
Wed 12:38:35 AM 34.1117 -102.2683 286° West 342 394 30,000  Level Fort Worth Center
Wed 12:39:36 AM 34.1378 -102.3781 286° West 342 394 30,000  Level Fort Worth Center
Wed 12:40:36 AM 34.1639 -102.4917 286° West 346 398 30,000  Level Fort Worth Center
Wed 12:41:37 AM 34.1900 -102.6033 286° West 346 398 30,000  Level Fort Worth Center
Wed 12:42:37 AM 34.2156 -102.7144 286° West 345 397 30,000  Level Fort Worth Center
Wed 12:43:38 AM 34.2419 -102.8278 286° West 346 398 30,000  Level Fort Worth Center
Wed 12:44:39 AM 34.2675 -102.9406 285° West 347 399 30,000  Level Fort Worth Center
Wed 12:45:39 AM 34.2925 -103.0528 285° West 346 398 30,000  Level Fort Worth Center
Wed 12:46:40 AM 34.3189 -103.1669 286° West 348 400 30,000  Level Fort Worth Center
Wed 12:47:40 AM 34.3439 -103.2811 285° West 349 402 30,000  Level Fort Worth Center
Wed 12:48:41 AM 34.3697 -103.3936 286° West 349 402 30,000  Level Fort Worth Center
Wed 12:49:41 AM 34.3953 -103.5064 285° West 349 402 30,000  Level Fort Worth Center
Wed 12:50:42 AM 34.4219 -103.6308 285° West 349 402 30,000  Level Fort Worth Center
Wed 12:51:42 AM 34.4450 -103.7314 286° West 348 400 30,000  Level Fort Worth Center
Wed 12:52:43 AM 34.4686 -103.8444 284° West 348 400 30,000  Level Fort Worth Center
Wed 12:53:43 AM 34.4958 -103.9569 286° West 348 400 30,000  Level Fort Worth Center
Wed 12:54:44 AM 34.5206 -104.0697 285° West 348 400 30,000  Level Fort Worth Center
Wed 12:55:44 AM 34.5492 -104.2053 284° West 348 400 30,000  Level Fort Worth Center
Wed 12:56:45 AM 34.5711 -104.3028 285° West 348 400 30,000  Level Fort Worth Center
Wed 12:58:10 AM 34.6069 -104.4794 284° West 350 403 30,000  Level Albuquerque Center
Wed 12:59:10 AM 34.6319 -104.5944 285° West 348 400 30,000  Level Albuquerque Center
Wed 01:00:11 AM 34.6564 -104.7083 285° West 345 397 30,000  Level Albuquerque Center
Wed 01:01:12 AM 34.6800 -104.8217 284° West 344 396 30,000  Level Albuquerque Center
Wed 01:02:13 AM 34.7033 -104.9344 284° West 341 392 30,000 -198 Level Albuquerque Center
Wed 01:03:13 AM 34.7272 -105.0461 285° West 339 390 29,600 -1,041 Descending Albuquerque Center
Wed 01:04:14 AM 34.7506 -105.1592 284° West 341 392 27,900 -1,770 Descending Albuquerque Center
Wed 01:05:15 AM 34.7739 -105.2669 285° West 332 382 26,000 -1,918 Descending Albuquerque Center
Wed 01:06:16 AM 34.7947 -105.3728 284° West 323 372 24,000 -1,934 Descending Albuquerque Center
Wed 01:07:16 AM 34.8161 -105.4794 284° West 321 369 22,100 -1,884 Descending Albuquerque Center
Wed 01:08:17 AM 34.8367 -105.5778 284° West 317 365 20,200 -1,869 Descending Albuquerque Center
Wed 01:09:18 AM 34.8578 -105.6797 284° West 311 358 18,300 -1,815 Descending Albuquerque Center
Wed 01:10:16 AM 34.8767 -105.7881 282° West 314 361 16,600 -1,700 Descending Albuquerque Center
Wed 01:10:18 AM 34.8781 -105.7844 65° Northeast 315 362 16,600 -612 Level Albuquerque Center
Wed 01:11:05 AM 34.8931 -105.8667 283° West 314 361 16,100 -590 Descending Albuquerque Center
Wed 01:11:19 AM 34.8989 -105.8858 290° West 311 358 16,000 -91 Descending Albuquerque Center
Wed 01:12:11 AM 34.9161 -105.9825 282° West 307 353 16,000  Level Albuquerque Center
Wed 01:12:20 AM 34.9197 -105.9892 303° West 311 358 16,000  Level Albuquerque Center
Wed 01:13:18 AM 34.9381 -106.0933 282° West 310 357 16,000  Level Albuquerque Center
Wed 01:13:20 AM 34.9403 -106.0911 39° Northeast 311 358 16,000 -1,309 Level Albuquerque Center
Wed 01:14:13 AM 34.9603 -106.1808 285° West 293 337 14,800 -1,377 Descending Albuquerque Center
Wed 01:14:21 AM 34.9619 -106.1878 286° West 300 345 14,600 -2,000 Descending Albuquerque Center
Wed 01:15:07 AM 34.9797 -106.2664 285° West 280 322 13,000 -1,967 Descending Albuquerque Center
Wed 01:15:22 AM 34.9836 -106.2839 285° West 285 328 12,600 -1,672 Descending Albuquerque Center
Wed 01:16:08 AM 34.9961 -106.3581 282° West 283 326 11,300 -1,400 Descending Albuquerque Center
Wed 01:16:22 AM 35.0008 -106.3767 287° West 282 325 11,200 -333 Descending Albuquerque Center
Wed 01:17:02 AM 35.0125 -106.4394 283° West 264 304 11,000 -197 Descending Albuquerque Center
Wed 01:17:23 AM 35.0183 -106.4622 287° West 264 304 11,000  Level Albuquerque Center
Wed 01:17:57 AM 35.0281 -106.5158 283° West 254 292 11,000  Level Albuquerque Center
Wed 01:18:24 AM 35.0344 -106.5450 285° West 254 292 11,000  Level Albuquerque Center
Wed 01:18:57 AM 35.0453 -106.5892 287° West 223 257 11,000 -500 Level Albuquerque Center
Wed 01:19:24 AM 35.0514 -106.6150 286° West 217 250 10,500 -1,527 Descending Albuquerque Center
Wed 01:19:52 AM 35.0683 -106.6481 302° West 209 241 9,600 -1,574 Descending Albuquerque Center
Wed 01:20:25 AM 35.0917 -106.6686 324° Northwest 227 261 8,900 -1,164 Descending Albuquerque Center
Wed 01:20:59 AM 35.1194 -106.6972 320° Northwest 224 258 8,300 -689 Descending Albuquerque Center
Wed 01:21:26 AM 35.1378 -106.7131 325° Northwest 217 250 8,200 -300 Descending Albuquerque Center
Wed 01:21:59 AM 35.1714 -106.7125 North 203 234 8,000 -200 Descending Albuquerque Center
Wed 01:22:26 AM 35.1867 -106.6936 45° Northeast 229 264 8,000  Level Albuquerque Center
Wed 01:23:00 AM 35.1783 -106.6431 101° East 224 258 8,000  Level Albuquerque Center
Wed 01:23:27 AM 35.1736 -106.6225 106° East 219 252 8,000 -300 Level Albuquerque Center
Wed 01:24:00 AM 35.1500 -106.5778 123° Southeast 223 257 7,700 -295 Descending Albuquerque Center
Wed 01:24:28 AM 35.1375 -106.5622 134° Southeast 219 252 7,700 -787 Level Albuquerque Center
Wed 01:25:01 AM 35.0981 -106.5494 165° South 211 243 6,900 -1,000 Descending Albuquerque Center
Wed 01:25:28 AM 35.0839 -106.5564 202° Southwest 200 230 6,700 -984 Descending Albuquerque Center
Wed 01:26:02 AM 35.0594 -106.5856 224° Southwest 161 185 5,900 -1,082 Descending Albuquerque Center
Wed 01:26:29 AM 35.0506 -106.5956 223° Southwest 166 191 5,600 -667 Descending Albuquerque Center

Login

Don't have an account? Register now (free) for customized features, flight alerts, and more!